Time;durP1;ratioP1;P1;durP2;ratioP2;P2;SDS_P1;SDS_P2;PMS_P1;PMS_P2;Temp;Humidity;BMP_temperature;BMP_pressure;BME280_temperature;BME280_humidity;BME280_pressure;Samples;Min_cycle;Max_cycle;Signal;HPM_P1;HPM_P2
2021/04/25 17:24:44;;;;;;;3.55;1.08;;;25.10;40.40;;;;;;5067628;28;20954;-64
2021/04/25 17:27:09;;;;;;;2.55;1.20;;;25.00;40.30;;;;;;4911165;28;20053;-63
2021/04/25 17:35:32;;;;;;;3.45;1.67;;;25.20;29.90;;;;;;5054276;27;905589;-76
2021/04/25 17:37:58;;;;;;;4.15;1.80;;;23.70;34.10;;;;;;5026930;28;20041;-75
2021/04/25 17:40:24;;;;;;;3.58;2.03;;;22.70;32.20;;;;;;5026611;28;20045;-80
2021/04/25 17:42:51;;;;;;;4.72;2.17;;;22.00;33.10;;;;;;5031474;28;20496;-83
2021/04/25 17:45:19;;;;;;;3.78;1.52;;;21.50;33.80;;;;;;5031798;28;20017;-84
2021/04/25 17:47:46;;;;;;;5.55;2.28;;;21.20;34.20;;;;;;5031284;28;20109;-83
2021/04/25 17:50:15;;;;;;;3.63;2.22;;;20.90;34.40;;;;;;5029924;28;20072;-81
2021/04/25 17:52:41;;;;;;;2.67;1.95;;;20.70;34.30;;;;;;5044361;28;20039;-82
2021/04/25 17:55:08;;;;;;;3.30;1.63;;;20.60;34.40;;;;;;5038773;28;20034;-80
2021/04/25 17:57:34;;;;;;;5.72;2.20;;;20.50;34.70;;;;;;5035554;28;20097;-90
2021/04/25 18:00:00;;;;;;;4.78;2.33;;;20.40;34.80;;;;;;5041363;28;20531;-85
2021/04/25 18:02:26;;;;;;;3.25;1.90;;;20.40;34.90;;;;;;5036629;28;20025;-86
2021/04/25 18:04:52;;;;;;;4.78;2.33;;;20.40;34.80;;;;;;5046148;28;20039;-88
2021/04/25 18:07:17;;;;;;;4.82;2.35;;;20.20;34.90;;;;;;5047527;28;20107;-87
2021/04/25 18:09:43;;;;;;;9.98;4.85;;;20.10;34.70;;;;;;5044698;28;20029;-85
2021/04/25 18:12:09;;;;;;;9.82;4.78;;;20.00;34.50;;;;;;5023229;28;20483;-90
2021/04/25 18:14:36;;;;;;;12.38;5.20;;;20.10;34.80;;;;;;5023917;28;20030;-87
2021/04/25 18:17:03;;;;;;;11.80;5.07;;;19.90;34.60;;;;;;5021693;28;20049;-90
2021/04/25 18:19:29;;;;;;;13.35;6.25;;;19.90;34.90;;;;;;5030411;28;20017;-89
2021/04/25 18:21:55;;;;;;;10.32;5.50;;;19.90;35.00;;;;;;5033131;28;20064;-83
2021/04/25 18:24:21;;;;;;;8.75;5.32;;;19.90;35.00;;;;;;5033812;28;20033;-86
2021/04/25 18:26:47;;;;;;;7.57;4.25;;;19.90;34.90;;;;;;5022341;28;20034;-87
2021/04/25 18:29:14;;;;;;;4.82;2.58;;;19.80;35.20;;;;;;5020268;28;20026;-90
2021/04/25 18:31:40;;;;;;;7.13;1.95;;;19.80;35.20;;;;;;5029744;28;20084;-86
2021/04/25 18:34:05;;;;;;;5.32;2.10;;;19.60;35.20;;;;;;5019189;28;20045;-85
2021/04/25 18:36:31;;;;;;;4.03;1.75;;;19.50;35.00;;;;;;5027485;28;20030;-83
2021/04/25 18:38:57;;;;;;;5.13;2.40;;;19.40;34.90;;;;;;5026487;28;20105;-83
2021/04/25 18:41:25;;;;;;;3.38;1.77;;;19.40;35.40;;;;;;5028095;28;20061;-78
2021/04/25 18:43:52;;;;;;;3.88;1.85;;;19.30;35.10;;;;;;5030120;28;20577;-82
2021/04/25 18:46:18;;;;;;;2.72;1.75;;;19.30;35.00;;;;;;4986930;28;20046;-82
2021/04/25 18:48:50;;;;;;;4.13;2.10;;;19.20;35.30;;;;;;5037029;28;20018;-81
2021/04/25 18:51:20;;;;;;;3.22;1.88;;;19.00;35.50;;;;;;5015889;28;20547;-82
2021/04/25 18:53:47;;;;;;;5.78;2.30;;;19.00;35.80;;;;;;5030151;28;20041;-82
2021/04/25 18:56:13;;;;;;;4.35;2.33;;;19.00;35.60;;;;;;5025366;28;20101;-82
2021/04/25 18:58:40;;;;;;;3.50;1.92;;;19.00;35.90;;;;;;5036487;28;20047;-82
2021/04/25 19:01:13;;;;;;;3.97;2.10;;;19.00;35.80;;;;;;5033749;28;20021;-82
2021/04/25 19:03:39;;;;;;;5.35;2.20;;;18.90;35.80;;;;;;5034453;28;20036;-82
2021/04/25 19:06:06;;;;;;;3.70;1.85;;;18.90;36.00;;;;;;5029326;28;20115;-82
2021/04/25 19:08:31;;;;;;;3.28;2.03;;;18.80;36.00;;;;;;5032710;28;20021;-82
2021/04/25 19:11:01;;;;;;;3.65;2.25;;;18.80;36.30;;;;;;5030125;28;20131;-82
2021/04/25 19:13:32;;;;;;;5.90;3.13;;;18.70;36.40;;;;;;5036126;28;20492;-83
2021/04/25 19:15:58;;;;;;;5.72;2.20;;;18.60;36.60;;;;;;5014074;28;20021;-77
2021/04/25 19:18:24;;;;;;;2.90;1.90;;;18.60;36.60;;;;;;5016837;28;20030;-76
2021/04/25 19:20:51;;;;;;;3.22;2.03;;;18.50;36.90;;;;;;5016631;28;20788;-74
2021/04/25 19:23:17;;;;;;;3.88;1.80;;;18.50;36.80;;;;;;5024068;28;20025;-75
2021/04/25 19:25:43;;;;;;;5.18;2.15;;;18.40;36.90;;;;;;5035699;28;20024;-77
2021/04/25 19:28:10;;;;;;;3.75;1.90;;;18.40;37.10;;;;;;5032757;28;20017;-79
2021/04/25 19:30:37;;;;;;;5.53;2.38;;;18.40;37.10;;;;;;5027294;28;20196;-77
2021/04/25 19:33:07;;;;;;;5.85;2.28;;;18.40;37.10;;;;;;5024076;28;20021;-77
2021/04/25 19:35:34;;;;;;;3.85;2.53;;;18.40;37.20;;;;;;5026299;28;20046;-78
2021/04/25 19:38:00;;;;;;;2.28;1.80;;;18.30;37.10;;;;;;5027147;28;20124;-78
2021/04/25 19:40:27;;;;;;;4.57;2.25;;;18.20;37.10;;;;;;5022231;28;20097;-78
2021/04/25 19:42:53;;;;;;;3.50;1.85;;;18.20;37.20;;;;;;5039035;28;20025;-77
2021/04/25 19:45:31;;;;;;;8.02;4.10;;;18.20;37.40;;;;;;5025189;28;20447;-77
2021/04/25 19:48:05;;;;;;;10.02;4.90;;;18.20;37.50;;;;;;5027985;28;20515;-77
2021/04/25 19:50:36;;;;;;;6.38;2.90;;;18.20;37.60;;;;;;5036104;28;20026;-78
2021/04/25 19:53:03;;;;;;;4.88;2.45;;;18.10;37.80;;;;;;5019405;28;20054;-77
2021/04/25 19:55:29;;;;;;;4.10;2.03;;;18.00;37.90;;;;;;5017311;28;20095;-78
2021/04/25 19:57:56;;;;;;;3.35;2.40;;;18.00;38.00;;;;;;5016689;28;20049;-78
2021/04/25 20:00:25;;;;;;;4.63;2.25;;;18.00;37.90;;;;;;5021459;28;20037;-79
2021/04/25 20:02:51;;;;;;;3.85;2.25;;;18.00;38.10;;;;;;5022334;28;20510;-78
2021/04/25 20:05:17;;;;;;;6.82;2.10;;;17.90;38.10;;;;;;5018897;28;20017;-78
2021/04/25 20:07:44;;;;;;;4.00;2.53;;;17.90;38.40;;;;;;5033032;28;20021;-77
2021/04/25 20:10:17;;;;;;;4.43;2.00;;;17.80;38.50;;;;;;5018619;28;20033;-78
2021/04/25 20:12:43;;;;;;;3.70;2.13;;;17.80;38.30;;;;;;5021897;28;20070;-78
2021/04/25 20:15:12;;;;;;;6.28;3.13;;;17.70;38.40;;;;;;5019232;28;20086;-78
2021/04/25 20:17:38;;;;;;;5.30;2.28;;;17.60;38.60;;;;;;5024208;28;20014;-77
2021/04/25 20:20:07;;;;;;;4.78;2.40;;;17.60;38.80;;;;;;5026649;28;20505;-77
2021/04/25 20:22:33;;;;;;;4.57;2.57;;;17.60;38.70;;;;;;5019648;28;20030;-77
2021/04/25 20:24:59;;;;;;;6.32;2.42;;;17.50;38.60;;;;;;5032873;28;20048;-77
2021/04/25 20:27:25;;;;;;;5.15;2.45;;;17.50;38.60;;;;;;5027456;28;20437;-77
2021/04/25 20:29:51;;;;;;;8.35;2.42;;;17.50;39.20;;;;;;5032321;28;20026;-77
2021/04/25 20:32:17;;;;;;;5.93;2.80;;;17.40;38.40;;;;;;5021505;28;20021;-77
2021/04/25 20:34:43;;;;;;;5.95;2.90;;;17.40;39.10;;;;;;5020085;28;20046;-77
2021/04/25 20:37:09;;;;;;;9.55;3.40;;;17.40;40.50;;;;;;5035946;28;20381;-77
2021/04/25 20:39:34;;;;;;;8.18;3.75;;;17.40;41.70;;;;;;5024611;28;20044;-77
2021/04/25 20:42:02;;;;;;;5.55;4.10;;;17.40;42.10;;;;;;5041254;28;20056;-77
2021/04/25 20:44:29;;;;;;;6.93;3.50;;;17.40;43.30;;;;;;5015929;28;20226;-76
2021/04/25 20:46:55;;;;;;;9.27;4.40;;;17.40;43.60;;;;;;5034609;28;20480;-77
2021/04/25 20:49:21;;;;;;;8.20;4.75;;;17.30;43.50;;;;;;5027104;28;20026;-77
2021/04/25 20:51:47;;;;;;;9.00;4.40;;;17.30;44.10;;;;;;5026911;28;20025;-77
2021/04/25 20:54:13;;;;;;;8.90;4.68;;;17.30;43.90;;;;;;5042124;28;20026;-77
2021/04/25 20:56:38;;;;;;;8.52;4.82;;;17.20;44.60;;;;;;5025614;28;20034;-76
2021/04/25 20:59:04;;;;;;;10.07;5.18;;;17.10;45.20;;;;;;5025566;28;20014;-77
2021/04/25 21:01:30;;;;;;;6.85;4.80;;;17.10;45.60;;;;;;5028981;28;20085;-77
2021/04/25 21:03:57;;;;;;;9.52;5.00;;;17.00;45.10;;;;;;5022774;28;20069;-77
2021/04/25 21:06:23;;;;;;;12.85;5.32;;;17.00;45.50;;;;;;5023562;28;20436;-77
2021/04/25 21:08:49;;;;;;;10.75;5.10;;;16.90;45.60;;;;;;5026261;28;20029;-77
2021/04/25 21:11:19;;;;;;;9.48;5.75;;;16.90;45.60;;;;;;5022833;28;20026;-77
2021/04/25 21:13:45;;;;;;;8.65;5.43;;;16.80;46.10;;;;;;5020668;28;20088;-77
2021/04/25 21:16:12;;;;;;;9.10;5.93;;;16.80;45.80;;;;;;5022955;28;20025;-77
2021/04/25 21:18:37;;;;;;;11.30;6.20;;;16.80;46.00;;;;;;5020973;28;20021;-76
2021/04/25 21:21:04;;;;;;;8.25;5.32;;;16.80;46.20;;;;;;5030307;28;20079;-77
2021/04/25 21:23:31;;;;;;;6.82;4.93;;;16.80;46.10;;;;;;5045010;28;20060;-77
2021/04/25 21:25:56;;;;;;;9.43;5.82;;;16.70;46.50;;;;;;5024426;28;20029;-77
2021/04/25 21:28:22;;;;;;;13.30;5.70;;;16.70;46.40;;;;;;5023593;28;20029;-77
2021/04/25 21:30:48;;;;;;;10.02;5.88;;;16.60;46.40;;;;;;5035053;28;20101;-77
2021/04/25 21:33:13;;;;;;;11.95;6.47;;;16.60;46.80;;;;;;5034879;28;20358;-77
2021/04/25 21:35:39;;;;;;;7.28;5.18;;;16.50;46.60;;;;;;5035030;28;20493;-77
2021/04/25 21:38:05;;;;;;;12.15;6.13;;;16.40;46.90;;;;;;5028245;28;20573;-77
2021/04/25 21:40:30;;;;;;;10.95;5.85;;;16.40;46.90;;;;;;5013748;28;20033;-77
2021/04/25 21:42:56;;;;;;;11.27;5.38;;;16.50;46.40;;;;;;5015330;28;20373;-76
2021/04/25 21:45:28;;;;;;;11.90;6.20;;;16.50;46.40;;;;;;5014983;28;20029;-77
2021/04/25 21:47:56;;;;;;;8.73;5.75;;;16.50;46.00;;;;;;5015701;28;20504;-77
2021/04/25 21:50:22;;;;;;;11.00;6.53;;;16.40;46.10;;;;;;5015309;28;20026;-77
2021/04/25 21:52:48;;;;;;;12.23;6.03;;;16.40;46.20;;;;;;5011017;28;20041;-76
2021/04/25 21:55:14;;;;;;;9.57;5.57;;;16.40;46.10;;;;;;5034571;28;20030;-77
2021/04/25 21:57:39;;;;;;;9.30;6.03;;;16.30;46.30;;;;;;5034880;28;20072;-77
2021/04/25 22:00:29;;;;;;;9.93;5.68;;;16.20;46.60;;;;;;5029335;28;20033;-77
2021/04/25 22:02:55;;;;;;;10.95;6.13;;;16.20;46.50;;;;;;5034726;28;20499;-77
2021/04/25 22:05:21;;;;;;;9.23;5.93;;;16.20;46.10;;;;;;5034774;28;20113;-77
2021/04/25 22:07:47;;;;;;;10.27;5.45;;;16.10;45.90;;;;;;5033469;28;20053;-77
2021/04/25 22:10:13;;;;;;;9.30;5.40;;;16.10;45.70;;;;;;5034647;28;20063;-77
2021/04/25 22:12:39;;;;;;;7.43;5.30;;;16.10;45.70;;;;;;5033026;28;20492;-77
2021/04/25 22:15:12;;;;;;;7.35;4.85;;;16.10;45.60;;;;;;5034705;28;20069;-77
2021/04/25 22:17:38;;;;;;;7.75;5.30;;;16.00;45.50;;;;;;5025625;28;20110;-77
2021/04/25 22:20:06;;;;;;;10.05;5.50;;;16.00;45.30;;;;;;5013532;28;20061;-77
2021/04/25 22:22:32;;;;;;;10.35;5.07;;;16.00;45.30;;;;;;5022486;28;20026;-77
2021/04/25 22:24:58;;;;;;;7.75;5.00;;;15.90;45.30;;;;;;5038081;28;20025;-77
2021/04/25 22:27:24;;;;;;;8.07;4.55;;;15.80;45.00;;;;;;5038218;28;20110;-77
2021/04/25 22:29:50;;;;;;;10.43;5.60;;;15.80;45.10;;;;;;5034227;28;20029;-77
2021/04/25 22:32:16;;;;;;;6.45;4.95;;;15.70;45.00;;;;;;5018313;28;20057;-77
2021/04/25 22:34:41;;;;;;;7.57;4.72;;;15.80;44.80;;;;;;5018237;28;20054;-77
2021/04/25 22:37:07;;;;;;;6.68;5.03;;;15.80;44.90;;;;;;5018377;28;20026;-77
2021/04/25 22:39:32;;;;;;;6.88;4.68;;;15.80;44.70;;;;;;5031776;28;20117;-77
2021/04/25 22:41:58;;;;;;;5.78;4.40;;;15.80;44.60;;;;;;5036843;28;20030;-76
2021/04/25 22:44:24;;;;;;;10.73;4.90;;;15.80;44.30;;;;;;5018193;28;20553;-76
2021/04/25 22:46:49;;;;;;;7.43;4.95;;;15.80;44.30;;;;;;5016797;28;20062;-77
2021/04/25 22:49:15;;;;;;;7.15;5.00;;;15.70;44.00;;;;;;5021346;28;20617;-77
2021/04/25 22:51:41;;;;;;;8.40;4.80;;;15.60;44.40;;;;;;5037814;28;20107;-76
2021/04/25 22:54:07;;;;;;;8.10;5.00;;;15.60;44.40;;;;;;5037592;28;20592;-77
2021/04/25 22:56:33;;;;;;;8.07;5.07;;;15.60;44.10;;;;;;5037731;28;20025;-77
2021/04/25 22:58:58;;;;;;;7.55;5.03;;;15.60;44.10;;;;;;5032367;28;20427;-77
2021/04/25 23:01:24;;;;;;;7.72;5.32;;;15.60;44.10;;;;;;5035694;28;20064;-77
2021/04/25 23:03:50;;;;;;;8.50;5.13;;;15.60;43.80;;;;;;5037538;28;20477;-77
2021/04/25 23:06:16;;;;;;;8.75;5.60;;;15.60;44.00;;;;;;5036040;28;20029;-77
2021/04/25 23:08:41;;;;;;;10.50;5.45;;;15.60;43.80;;;;;;5017859;28;20030;-76
2021/04/25 23:11:07;;;;;;;10.52;5.95;;;15.50;43.90;;;;;;5017605;28;20029;-77
2021/04/25 23:13:33;;;;;;;8.90;5.30;;;15.50;44.10;;;;;;5017491;28;20037;-77
2021/04/25 23:15:58;;;;;;;9.70;5.25;;;15.40;44.10;;;;;;5017875;28;20407;-77
2021/04/25 23:18:24;;;;;;;6.75;5.03;;;15.40;44.30;;;;;;5017767;28;20025;-77
2021/04/25 23:20:49;;;;;;;6.07;4.60;;;15.30;44.10;;;;;;5017629;28;20093;-77
2021/04/25 23:23:15;;;;;;;9.90;5.13;;;15.30;44.10;;;;;;5025549;28;20048;-77
2021/04/25 23:25:41;;;;;;;12.15;5.93;;;15.30;44.20;;;;;;5037226;28;20124;-77
2021/04/25 23:28:06;;;;;;;10.82;6.07;;;15.30;44.20;;;;;;5019089;28;20116;-77
2021/04/25 23:30:32;;;;;;;7.65;5.22;;;15.30;44.20;;;;;;5017396;28;20037;-77
2021/04/25 23:32:58;;;;;;;9.02;5.50;;;15.20;44.30;;;;;;5017314;28;20538;-77
2021/04/25 23:35:24;;;;;;;7.93;5.60;;;15.30;44.30;;;;;;5017322;28;20052;-76
2021/04/25 23:37:50;;;;;;;9.90;5.32;;;15.30;44.20;;;;;;5017352;28;20026;-76
2021/04/25 23:40:17;;;;;;;10.68;5.63;;;15.30;44.30;;;;;;5017192;28;20045;-76
2021/04/25 23:42:43;;;;;;;11.25;6.20;;;15.20;44.20;;;;;;5017218;28;20030;-77
2021/04/25 23:45:09;;;;;;;8.40;5.38;;;15.20;44.20;;;;;;5017170;28;20121;-76
2021/04/25 23:47:35;;;;;;;9.63;5.63;;;15.10;44.20;;;;;;5017273;28;20244;-76
2021/04/25 23:50:01;;;;;;;10.30;5.97;;;15.10;44.30;;;;;;5017039;28;20028;-77
2021/04/25 23:52:26;;;;;;;7.95;5.32;;;15.10;44.40;;;;;;5016822;28;20029;-76
2021/04/25 23:54:52;;;;;;;9.85;5.45;;;15.00;44.20;;;;;;5015738;28;20026;-77
2021/04/25 23:57:18;;;;;;;8.70;5.60;;;15.00;44.40;;;;;;5016885;28;20065;-77
2021/04/25 23:59:43;;;;;;;7.80;4.75;;;15.00;44.40;;;;;;5016885;28;20028;-77
